createdAt,value
2023-04-20T00:00:09.161Z,32.07
2023-04-20T00:01:09.216Z,32.05
2023-04-20T00:02:09.299Z,32.04
2023-04-20T00:03:09.434Z,32.04
2023-04-20T00:04:09.332Z,32.08
2023-04-20T00:05:09.416Z,32.02
2023-04-20T00:06:09.419Z,32.03
2023-04-20T00:07:09.433Z,32.00
2023-04-20T00:08:09.496Z,31.99
2023-04-20T00:09:09.533Z,31.98
2023-04-20T00:10:09.558Z,31.98
2023-04-20T00:11:09.584Z,32.00
2023-04-20T00:12:09.635Z,31.99
2023-04-20T00:13:09.697Z,31.97
2023-04-20T00:14:09.748Z,31.99
2023-04-20T00:15:09.774Z,31.96
2023-04-20T00:16:09.834Z,31.95
2023-04-20T00:17:09.862Z,31.95
2023-04-20T00:18:09.887Z,31.95
2023-04-20T00:19:10.114Z,31.95
2023-04-20T00:20:10.033Z,31.94
2023-04-20T00:21:10.014Z,31.94
2023-04-20T00:22:10.025Z,31.93
2023-04-20T00:23:10.087Z,31.93
2023-04-20T00:24:10.110Z,31.94
2023-04-20T00:25:10.135Z,31.93
2023-04-20T00:26:10.266Z,31.94
2023-04-20T00:27:10.208Z,31.92
2023-04-20T00:28:10.266Z,31.91
2023-04-20T00:29:10.287Z,31.91
2023-04-20T00:30:10.362Z,31.91
2023-04-20T00:31:10.419Z,31.90
2023-04-20T00:32:10.382Z,31.89
2023-04-20T00:33:10.423Z,31.93
2023-04-20T00:34:10.492Z,31.90
2023-04-20T00:35:10.535Z,31.87
2023-04-20T00:36:10.536Z,31.88
2023-04-20T00:37:10.593Z,31.89
2023-04-20T00:38:10.639Z,31.85
2023-04-20T00:39:10.626Z,31.85
2023-04-20T00:40:10.667Z,31.86
2023-04-20T00:41:10.733Z,31.85
2023-04-20T00:42:10.773Z,31.84
2023-04-20T00:43:10.807Z,31.86
2023-04-20T00:44:10.798Z,31.81
2023-04-20T00:45:10.857Z,31.82
2023-04-20T00:46:10.918Z,31.84
2023-04-20T00:47:10.920Z,31.80
2023-04-20T00:48:10.938Z,31.80
2023-04-20T00:49:11.047Z,31.79
2023-04-20T00:50:11.054Z,31.79
2023-04-20T00:51:11.104Z,31.80
2023-04-20T00:52:11.123Z,31.80
2023-04-20T00:53:11.158Z,31.81
2023-04-20T00:54:11.192Z,31.79
2023-04-20T00:55:11.270Z,31.79
2023-04-20T00:56:11.300Z,31.80
2023-04-20T00:57:11.333Z,31.79
2023-04-20T00:58:11.382Z,31.79
2023-04-20T00:59:11.433Z,31.81
2023-04-20T01:00:11.481Z,31.76
2023-04-20T01:01:11.554Z,31.77
2023-04-20T01:02:11.591Z,31.75
2023-04-20T01:03:11.699Z,31.75
2023-04-20T01:04:11.762Z,31.75
2023-04-20T01:05:11.706Z,31.74
2023-04-20T01:06:11.713Z,31.73
2023-04-20T01:07:11.764Z,31.75
2023-04-20T01:08:11.791Z,31.77
2023-04-20T01:09:11.826Z,31.73
2023-04-20T01:10:11.889Z,31.75
2023-04-20T01:11:11.926Z,31.72
2023-04-20T01:12:11.950Z,31.71
2023-04-20T01:13:12.013Z,31.70
2023-04-20T01:14:12.054Z,31.69
2023-04-20T01:15:12.069Z,31.68
2023-04-20T01:16:12.206Z,31.69
2023-04-20T01:17:12.135Z,31.68
2023-04-20T01:18:12.201Z,31.65
2023-04-20T01:19:12.253Z,31.67
2023-04-20T01:20:12.305Z,31.67
2023-04-20T01:21:12.316Z,31.66
2023-04-20T01:22:12.408Z,31.66
2023-04-20T01:23:12.411Z,31.69
2023-04-20T01:24:12.463Z,31.65
2023-04-20T01:25:12.509Z,31.65
2023-04-20T01:26:12.569Z,31.67
2023-04-20T01:27:12.592Z,31.65
2023-04-20T01:28:12.631Z,31.61
2023-04-20T01:29:12.719Z,31.62
2023-04-20T01:30:12.719Z,31.62
2023-04-20T01:31:12.793Z,31.62
2023-04-20T01:32:12.774Z,31.61
2023-04-20T01:33:12.818Z,31.59
2023-04-20T01:34:12.839Z,31.61
2023-04-20T01:35:12.880Z,31.60
2023-04-20T01:36:12.920Z,31.60
2023-04-20T01:37:12.963Z,31.60
2023-04-20T01:38:13.000Z,31.60
2023-04-20T01:39:13.041Z,31.60
2023-04-20T01:40:13.079Z,31.60
2023-04-20T01:41:13.119Z,31.57
2023-04-20T01:42:13.131Z,31.56
2023-04-20T01:43:13.187Z,31.58
2023-04-20T01:44:13.225Z,31.56
2023-04-20T01:45:13.281Z,31.56
2023-04-20T01:46:13.331Z,31.54
2023-04-20T01:47:13.379Z,31.58
2023-04-20T01:48:13.409Z,31.55
2023-04-20T01:49:13.461Z,31.55
2023-04-20T01:50:13.512Z,31.53
2023-04-20T01:51:13.514Z,31.51
2023-04-20T01:52:13.608Z,31.52
2023-04-20T01:53:13.697Z,31.52
2023-04-20T01:54:13.685Z,31.52
2023-04-20T01:55:13.756Z,31.51
2023-04-20T01:56:13.762Z,31.51
2023-04-20T01:57:13.812Z,31.48
2023-04-20T01:58:13.829Z,31.51
2023-04-20T01:59:13.908Z,31.50
2023-04-20T02:00:13.923Z,31.47
2023-04-20T02:01:14.120Z,31.45
2023-04-20T02:02:14.072Z,31.44
2023-04-20T02:03:14.143Z,31.44
2023-04-20T02:04:14.153Z,31.44
2023-04-20T02:05:14.148Z,31.44
2023-04-20T02:06:14.192Z,31.42
2023-04-20T02:07:14.241Z,31.42
2023-04-20T02:08:14.274Z,31.40
2023-04-20T02:09:14.290Z,31.40
2023-04-20T02:10:14.320Z,31.38
2023-04-20T02:11:14.358Z,31.39
2023-04-20T02:12:14.374Z,31.38
2023-04-20T02:13:14.440Z,31.37
2023-04-20T02:14:14.423Z,31.35
2023-04-20T02:15:14.453Z,31.34
2023-04-20T02:16:14.488Z,31.30
2023-04-20T02:17:14.660Z,31.29
2023-04-20T02:18:14.525Z,31.26
2023-04-20T02:19:14.553Z,31.24
2023-04-20T02:20:14.576Z,31.21
2023-04-20T02:21:14.540Z,31.18
2023-04-20T02:22:14.554Z,31.14
2023-04-20T02:23:14.570Z,31.14
2023-04-20T02:24:14.574Z,31.13
2023-04-20T02:25:14.573Z,31.08
2023-04-20T02:26:14.589Z,31.05
2023-04-20T02:27:14.621Z,31.03
2023-04-20T02:28:14.604Z,30.99
2023-04-20T02:29:14.625Z,30.97
2023-04-20T02:30:14.626Z,30.96
2023-04-20T02:31:14.657Z,30.91
2023-04-20T02:32:14.620Z,30.90
2023-04-20T02:33:14.661Z,30.86
2023-04-20T02:34:14.666Z,30.85
2023-04-20T02:35:14.640Z,30.82
2023-04-20T02:36:14.661Z,30.79
2023-04-20T02:37:14.646Z,30.78
2023-04-20T02:38:14.659Z,30.75
2023-04-20T02:39:14.641Z,30.70
2023-04-20T02:40:14.693Z,30.70
2023-04-20T02:41:14.741Z,30.68
2023-04-20T02:42:14.747Z,30.67
2023-04-20T02:43:14.755Z,30.65
2023-04-20T02:44:14.794Z,30.62
2023-04-20T02:45:14.913Z,30.60
2023-04-20T02:46:14.972Z,30.57
2023-04-20T02:47:15.030Z,30.54
2023-04-20T02:48:15.111Z,30.55
2023-04-20T02:49:15.300Z,30.54
2023-04-20T02:50:15.228Z,30.49
2023-04-20T02:51:15.305Z,30.48
2023-04-20T02:52:15.348Z,30.47
2023-04-20T02:53:15.393Z,30.44
2023-04-20T02:54:15.456Z,30.43
2023-04-20T02:55:15.465Z,30.39
2023-04-20T02:56:15.478Z,30.40
2023-04-20T02:57:15.542Z,30.37
2023-04-20T02:58:15.603Z,30.35
2023-04-20T02:59:15.786Z,30.32
2023-04-20T03:00:15.680Z,30.30
2023-04-20T03:01:15.735Z,30.28
2023-04-20T03:02:15.905Z,30.27
2023-04-20T03:03:15.982Z,30.29
2023-04-20T03:04:16.117Z,30.30
2023-04-20T03:05:16.022Z,30.26
2023-04-20T03:06:16.072Z,30.27
2023-04-20T03:07:16.758Z,30.23
2023-04-20T03:08:16.186Z,30.23
2023-04-20T03:09:16.604Z,30.22
2023-04-20T03:10:16.289Z,30.19
2023-04-20T03:11:16.410Z,30.19
2023-04-20T03:12:16.474Z,30.21
2023-04-20T03:13:16.483Z,30.18
2023-04-20T03:14:16.528Z,30.19
2023-04-20T03:15:16.596Z,30.18
2023-04-20T03:16:16.726Z,30.16
2023-04-20T03:17:16.778Z,30.14
2023-04-20T03:18:16.827Z,30.13
2023-04-20T03:19:17.095Z,30.13
2023-04-20T03:20:16.888Z,30.07
2023-04-20T03:21:16.967Z,30.06
2023-04-20T03:22:16.981Z,30.06
2023-04-20T03:23:17.047Z,30.07
2023-04-20T03:24:17.095Z,30.06
2023-04-20T03:25:17.186Z,30.03
2023-04-20T03:26:17.231Z,30.04
2023-04-20T03:27:17.241Z,29.99
2023-04-20T03:28:17.328Z,29.98
2023-04-20T03:29:17.546Z,30.00
2023-04-20T03:30:17.413Z,30.01
2023-04-20T03:31:17.544Z,29.95
2023-04-20T03:32:17.567Z,29.95
2023-04-20T03:33:17.603Z,29.95
2023-04-20T03:34:17.645Z,29.93
2023-04-20T03:35:17.770Z,29.94
2023-04-20T03:36:17.732Z,29.93
2023-04-20T03:37:17.788Z,29.94
2023-04-20T03:38:17.841Z,29.91
2023-04-20T03:39:18.228Z,29.90
2023-04-20T03:40:17.926Z,29.88
2023-04-20T03:41:17.998Z,29.87
2023-04-20T03:42:18.035Z,29.87
2023-04-20T03:43:18.087Z,29.90
2023-04-20T03:44:18.124Z,29.88
2023-04-20T03:45:18.182Z,29.88
2023-04-20T03:46:18.392Z,29.84
2023-04-20T03:47:18.279Z,29.83
2023-04-20T03:48:18.273Z,29.82
2023-04-20T03:49:18.432Z,29.84
2023-04-20T03:50:18.408Z,29.81
2023-04-20T03:51:18.436Z,29.81
2023-04-20T03:52:18.439Z,29.81
2023-04-20T03:53:18.634Z,29.78
2023-04-20T03:54:18.530Z,29.75
2023-04-20T03:55:18.578Z,29.75
2023-04-20T03:56:18.641Z,29.74
2023-04-20T03:57:18.675Z,29.70
2023-04-20T03:58:18.690Z,29.70
2023-04-20T03:59:18.864Z,29.69
2023-04-20T04:00:18.763Z,29.67
2023-04-20T04:01:18.818Z,29.67
2023-04-20T04:02:18.960Z,29.65
2023-04-20T04:03:19.059Z,29.67
2023-04-20T04:04:19.145Z,29.69
2023-04-20T04:05:19.014Z,29.70
2023-04-20T04:06:19.011Z,29.68
2023-04-20T04:07:19.016Z,29.69
2023-04-20T04:08:19.036Z,29.69
2023-04-20T04:09:19.326Z,29.67
2023-04-20T04:10:19.150Z,29.66
2023-04-20T04:11:19.231Z,29.63
2023-04-20T04:12:19.183Z,29.65
2023-04-20T04:13:19.247Z,29.64
2023-04-20T04:14:19.272Z,29.60
2023-04-20T04:15:19.324Z,29.59
2023-04-20T04:16:19.449Z,29.61
2023-04-20T04:17:19.366Z,29.60
2023-04-20T04:18:19.393Z,29.60
2023-04-20T04:19:19.590Z,29.59
2023-04-20T04:20:19.500Z,29.61
2023-04-20T04:21:19.504Z,29.52
2023-04-20T04:22:19.585Z,29.57
2023-04-20T04:23:19.584Z,29.54
2023-04-20T04:24:19.618Z,29.52
2023-04-20T04:25:19.671Z,29.50
2023-04-20T04:26:19.688Z,29.52
2023-04-20T04:27:19.692Z,29.52
2023-04-20T04:28:19.755Z,29.51
2023-04-20T04:29:19.916Z,29.53
2023-04-20T04:30:19.825Z,29.51
2023-04-20T04:31:19.855Z,29.49
2023-04-20T04:32:19.881Z,29.49
2023-04-20T04:33:19.848Z,29.50
2023-04-20T04:34:19.891Z,29.48
2023-04-20T04:35:19.963Z,29.51
2023-04-20T04:36:19.955Z,29.50
2023-04-20T04:37:19.985Z,29.52
2023-04-20T04:38:20.022Z,29.49
2023-04-20T04:39:20.047Z,29.47
2023-04-20T04:40:20.079Z,29.48
2023-04-20T04:41:20.078Z,29.51
2023-04-20T04:42:20.106Z,29.46
2023-04-20T04:43:20.160Z,29.49
2023-04-20T04:44:20.189Z,29.46
2023-04-20T04:45:20.241Z,29.48
2023-04-20T04:46:20.280Z,29.48
2023-04-20T04:47:20.262Z,29.48
2023-04-20T04:48:20.319Z,29.48
2023-04-20T04:49:20.672Z,29.50
2023-04-20T04:50:20.420Z,29.49
2023-04-20T04:51:20.390Z,29.52
2023-04-20T04:52:20.432Z,29.52
2023-04-20T04:53:20.436Z,29.50
2023-04-20T04:54:20.478Z,29.52
2023-04-20T04:55:20.482Z,29.48
2023-04-20T04:56:20.550Z,29.49
2023-04-20T04:57:20.566Z,29.52
2023-04-20T04:58:20.617Z,29.53
2023-04-20T04:59:20.640Z,29.54
2023-04-20T05:00:20.660Z,29.52
2023-04-20T05:01:27.733Z,29.54
2023-04-20T05:02:20.922Z,29.53
2023-04-20T05:03:20.854Z,29.55
2023-04-20T05:04:20.883Z,29.55
2023-04-20T05:05:20.715Z,29.57
2023-04-20T05:06:20.681Z,29.54
2023-04-20T05:07:20.707Z,29.58
2023-04-20T05:08:20.702Z,29.58
2023-04-20T05:09:20.867Z,29.59
2023-04-20T05:10:20.712Z,29.58
2023-04-20T05:11:20.686Z,29.59
2023-04-20T05:12:20.642Z,29.58
2023-04-20T05:13:20.680Z,29.57
2023-04-20T05:14:20.624Z,29.60
2023-04-20T05:15:20.645Z,29.62
2023-04-20T05:16:20.706Z,29.59
2023-04-20T05:17:20.662Z,29.59
2023-04-20T05:18:20.628Z,29.59
2023-04-20T05:19:20.611Z,29.59
2023-04-20T05:20:20.620Z,29.60
2023-04-20T05:21:20.614Z,29.59
2023-04-20T05:22:20.679Z,29.59
2023-04-20T05:23:20.618Z,29.61
2023-04-20T05:24:20.585Z,29.59
2023-04-20T05:25:20.587Z,29.58
2023-04-20T05:26:20.597Z,29.58
2023-04-20T05:27:20.590Z,29.56
2023-04-20T05:28:20.567Z,29.57
2023-04-20T05:29:20.561Z,29.57
2023-04-20T05:30:22.119Z,29.56
2023-04-20T05:31:20.559Z,29.55
2023-04-20T05:32:20.788Z,29.54
2023-04-20T05:33:20.665Z,29.54
2023-04-20T05:34:20.710Z,29.63
2023-04-20T05:35:20.861Z,29.83
2023-04-20T05:36:20.790Z,29.69
2023-04-20T05:37:21.241Z,28.94
2023-04-20T05:38:20.937Z,27.85
2023-04-20T05:39:21.064Z,28.02
2023-04-20T05:40:21.006Z,27.93
2023-04-20T05:41:21.024Z,27.85
2023-04-20T05:42:21.256Z,27.82
2023-04-20T05:43:21.049Z,27.47
2023-04-20T05:44:21.082Z,27.56
2023-04-20T05:45:21.106Z,27.46
2023-04-20T05:46:28.261Z,27.54
2023-04-20T05:47:21.319Z,27.52
2023-04-20T05:48:21.222Z,27.88
2023-04-20T05:49:21.292Z,27.90
2023-04-20T05:50:21.291Z,28.06
2023-04-20T05:51:21.307Z,28.51
2023-04-20T05:52:21.290Z,30.82
2023-04-20T05:53:21.300Z,32.63
2023-04-20T05:54:21.326Z,33.97
2023-04-20T05:55:22.550Z,39.99
2023-04-20T05:56:22.334Z,39.00
2023-04-20T05:57:21.339Z,40.45
2023-04-20T05:58:21.387Z,43.36
2023-04-20T05:59:21.322Z,43.65
2023-04-20T06:00:22.554Z,39.12
2023-04-20T06:01:21.317Z,37.43
2023-04-20T06:02:21.404Z,35.03
2023-04-20T06:03:21.440Z,34.33
2023-04-20T06:04:21.382Z,34.15
2023-04-20T06:05:21.342Z,37.32
2023-04-20T06:06:21.300Z,38.79
2023-04-20T06:07:21.307Z,35.74
2023-04-20T06:08:21.559Z,35.76
2023-04-20T06:09:21.262Z,38.05
2023-04-20T06:10:21.248Z,38.20
2023-04-20T06:11:21.294Z,37.87
2023-04-20T06:12:21.231Z,37.82
2023-04-20T06:13:21.761Z,37.82
2023-04-20T06:14:22.327Z,37.61
2023-04-20T06:15:21.923Z,37.04
2023-04-20T06:16:21.262Z,36.52
2023-04-20T06:17:21.295Z,40.63
2023-04-20T06:18:21.183Z,39.57
2023-04-20T06:19:21.150Z,42.50
2023-04-20T06:20:21.194Z,41.62
2023-04-20T06:21:21.161Z,36.33
2023-04-20T06:22:21.214Z,35.53
2023-04-20T06:23:21.349Z,40.59
2023-04-20T06:24:21.146Z,40.88
2023-04-20T06:25:21.115Z,38.38
2023-04-20T06:26:21.092Z,38.36
2023-04-20T06:27:21.036Z,36.89
2023-04-20T06:28:21.119Z,34.86
2023-04-20T06:29:21.816Z,34.64
2023-04-20T06:30:21.064Z,36.75
2023-04-20T06:31:20.913Z,37.82
2023-04-20T06:32:20.956Z,37.08
2023-04-20T06:33:20.896Z,36.00
2023-04-20T06:34:20.901Z,36.31
2023-04-20T06:35:20.827Z,35.24
2023-04-20T06:36:20.814Z,36.76
2023-04-20T06:37:20.824Z,35.28
2023-04-20T06:38:20.756Z,34.75
2023-04-20T06:39:20.766Z,32.09
2023-04-20T06:40:20.744Z,32.63
2023-04-20T06:41:20.737Z,33.73
2023-04-20T06:42:20.688Z,33.86
2023-04-20T06:43:20.691Z,32.23
2023-04-20T06:44:20.662Z,30.63
2023-04-20T06:45:20.714Z,30.82
2023-04-20T06:46:20.709Z,32.55
2023-04-20T06:47:20.658Z,33.30
2023-04-20T06:48:31.339Z,35.31
2023-04-20T06:49:21.587Z,35.24
2023-04-20T06:50:20.600Z,35.13
2023-04-20T06:51:20.554Z,33.44
2023-04-20T06:52:20.542Z,32.36
2023-04-20T06:53:20.507Z,32.80
2023-04-20T06:54:20.524Z,32.23
2023-04-20T06:55:20.475Z,32.09
2023-04-20T06:56:20.483Z,32.09
2023-04-20T06:57:20.433Z,32.31
2023-04-20T06:58:20.856Z,32.44
2023-04-20T06:59:20.656Z,32.58
2023-04-20T07:00:20.396Z,32.61
2023-04-20T07:01:20.435Z,32.33
2023-04-20T07:02:20.417Z,31.88
2023-04-20T07:03:20.517Z,32.48
2023-04-20T07:04:20.379Z,32.42
2023-04-20T07:05:20.305Z,32.40
2023-04-20T07:06:20.302Z,31.63
2023-04-20T07:07:20.310Z,32.08
2023-04-20T07:08:20.296Z,31.76
2023-04-20T07:09:20.293Z,32.03
2023-04-20T07:10:20.278Z,31.51
2023-04-20T07:11:20.277Z,31.60
2023-04-20T07:12:20.327Z,31.74
2023-04-20T07:13:20.291Z,32.03
2023-04-20T07:14:20.306Z,32.15
2023-04-20T07:15:20.315Z,32.29
2023-04-20T07:16:20.341Z,32.23
2023-04-20T07:17:20.336Z,32.10
2023-04-20T07:18:20.386Z,32.34
2023-04-20T07:19:20.390Z,32.35
2023-04-20T07:20:20.412Z,32.15
2023-04-20T07:21:20.454Z,34.31
2023-04-20T07:22:20.519Z,33.80
2023-04-20T07:23:20.536Z,32.21
2023-04-20T07:24:20.555Z,31.50
2023-04-20T07:25:20.463Z,31.63
2023-04-20T07:26:20.462Z,31.32
2023-04-20T07:27:20.473Z,30.89
2023-04-20T07:28:20.492Z,30.28
2023-04-20T07:29:20.696Z,29.86
2023-04-20T07:30:20.455Z,29.33
2023-04-20T07:31:20.518Z,29.41
2023-04-20T07:32:20.553Z,28.91
2023-04-20T07:33:20.835Z,29.24
2023-04-20T07:34:20.719Z,28.29
2023-04-20T07:35:20.588Z,27.81
2023-04-20T07:36:20.649Z,27.16
2023-04-20T07:37:20.666Z,27.53
2023-04-20T07:38:20.866Z,28.17
2023-04-20T07:39:20.743Z,28.82
2023-04-20T07:40:20.799Z,29.45
2023-04-20T07:41:20.862Z,30.07
2023-04-20T07:42:20.884Z,34.97
2023-04-20T07:43:20.995Z,33.95
2023-04-20T07:44:21.276Z,41.88
2023-04-20T07:45:21.098Z,32.74
2023-04-20T07:46:21.110Z,36.18
2023-04-20T07:47:21.194Z,37.26
2023-04-20T07:48:21.515Z,34.51
2023-04-20T07:49:21.154Z,32.48
2023-04-20T07:50:21.216Z,33.71
2023-04-20T07:51:21.231Z,36.50
2023-04-20T07:52:21.263Z,41.79
2023-04-20T07:53:21.282Z,39.99
2023-04-20T07:54:21.280Z,34.78
2023-04-20T07:55:21.305Z,39.74
2023-04-20T07:56:21.309Z,37.93
2023-04-20T07:57:21.284Z,38.16
2023-04-20T07:58:21.306Z,41.64
2023-04-20T07:59:21.314Z,40.18
2023-04-20T08:00:21.308Z,40.35
2023-04-20T08:01:21.302Z,40.38
2023-04-20T08:02:21.403Z,37.04
2023-04-20T08:03:21.592Z,33.10
2023-04-20T08:04:21.336Z,35.33
2023-04-20T08:05:21.370Z,32.57
2023-04-20T08:06:21.238Z,32.28
2023-04-20T08:07:21.237Z,33.93
2023-04-20T08:08:21.287Z,33.33
2023-04-20T08:09:21.287Z,32.26
2023-04-20T08:10:21.318Z,32.13
2023-04-20T08:11:21.347Z,32.61
2023-04-20T08:12:22.380Z,35.14
2023-04-20T08:13:21.379Z,32.90
2023-04-20T08:14:21.513Z,32.76
2023-04-20T08:15:21.348Z,32.68
2023-04-20T08:16:21.412Z,32.26
2023-04-20T08:17:21.605Z,32.32
2023-04-20T08:18:21.886Z,31.94
2023-04-20T08:19:21.557Z,32.98
2023-04-20T08:20:21.582Z,32.34
2023-04-20T08:21:23.943Z,32.72
2023-04-20T08:22:21.651Z,32.18
2023-04-20T08:23:21.586Z,32.61
2023-04-20T08:24:21.565Z,36.27
2023-04-20T08:25:21.545Z,33.57
2023-04-20T08:26:21.451Z,33.36
2023-04-20T08:27:21.464Z,33.36
2023-04-20T08:28:32.957Z,34.35
2023-04-20T08:29:22.365Z,33.46
2023-04-20T08:30:21.610Z,33.70
2023-04-20T08:31:21.348Z,32.52
2023-04-20T08:32:21.272Z,32.19
2023-04-20T08:33:21.652Z,31.76
2023-04-20T08:34:21.243Z,31.23
2023-04-20T08:35:21.247Z,31.07
2023-04-20T08:36:21.186Z,30.01
2023-04-20T08:37:21.187Z,30.03
2023-04-20T08:38:27.103Z,29.99
2023-04-20T08:39:22.399Z,29.60
2023-04-20T08:40:21.192Z,29.52
2023-04-20T08:41:21.102Z,29.30
2023-04-20T08:42:21.111Z,29.28
2023-04-20T08:43:22.000Z,28.94
2023-04-20T08:44:21.054Z,28.62
2023-04-20T08:45:21.064Z,28.73
2023-04-20T08:46:21.044Z,28.54
2023-04-20T08:47:21.096Z,28.33
2023-04-20T08:48:21.104Z,28.50
2023-04-20T08:49:20.928Z,28.52
2023-04-20T08:50:20.942Z,28.03
2023-04-20T08:51:20.941Z,28.13
2023-04-20T08:52:20.865Z,28.31
2023-04-20T08:53:20.864Z,28.19
2023-04-20T08:54:21.726Z,28.23
2023-04-20T08:55:20.814Z,28.00
2023-04-20T08:56:20.817Z,28.15
2023-04-20T08:57:20.791Z,28.06
2023-04-20T08:58:20.742Z,28.05
2023-04-20T08:59:20.952Z,27.77
2023-04-20T09:00:20.752Z,27.77
2023-04-20T09:01:28.686Z,27.66
2023-04-20T09:02:21.750Z,27.64
2023-04-20T09:03:20.871Z,27.91
2023-04-20T09:04:21.565Z,27.54
2023-04-20T09:05:20.683Z,28.10
2023-04-20T09:06:23.321Z,27.21
2023-04-20T09:07:20.655Z,33.73
2023-04-20T09:08:20.645Z,35.44
2023-04-20T09:09:20.648Z,31.47
2023-04-20T09:10:20.637Z,40.61
2023-04-20T09:11:20.601Z,29.44
2023-04-20T09:12:22.763Z,38.71
2023-04-20T09:13:20.582Z,31.09
2023-04-20T09:14:20.752Z,38.14
2023-04-20T09:15:20.623Z,31.15
2023-04-20T09:16:20.770Z,31.17
2023-04-20T09:17:20.833Z,40.95
2023-04-20T09:18:20.771Z,32.88
2023-04-20T09:19:20.857Z,34.65
2023-04-20T09:20:20.935Z,33.11
2023-04-20T09:21:21.012Z,31.76
2023-04-20T09:22:21.051Z,36.10
2023-04-20T09:23:21.502Z,35.15
2023-04-20T09:24:21.164Z,32.67
2023-04-20T09:25:21.204Z,30.25
2023-04-20T09:26:21.285Z,30.45
2023-04-20T09:27:21.406Z,33.56
2023-04-20T09:28:21.460Z,29.47
2023-04-20T09:29:21.522Z,31.40
2023-04-20T09:30:21.582Z,27.85
2023-04-20T09:31:21.625Z,28.76
2023-04-20T09:32:21.758Z,28.29
2023-04-20T09:33:21.710Z,29.84
2023-04-20T09:34:21.879Z,35.54
2023-04-20T09:35:21.805Z,29.73
2023-04-20T09:36:22.067Z,27.64
2023-04-20T09:37:21.960Z,27.39
2023-04-20T09:38:22.028Z,33.01
2023-04-20T09:39:22.404Z,28.06
2023-04-20T09:40:22.238Z,26.95
2023-04-20T09:41:22.145Z,27.05
2023-04-20T09:42:22.180Z,27.03
2023-04-20T09:43:22.144Z,26.92
2023-04-20T09:44:22.402Z,27.13
2023-04-20T09:45:22.177Z,26.89
2023-04-20T09:46:22.415Z,27.98
2023-04-20T09:47:22.200Z,29.92
2023-04-20T09:48:22.208Z,27.86
2023-04-20T09:49:22.206Z,27.28
2023-04-20T09:50:29.152Z,27.16
2023-04-20T09:51:23.240Z,27.06
2023-04-20T09:52:22.241Z,26.94
2023-04-20T09:53:22.890Z,27.54
2023-04-20T09:54:22.200Z,28.05
2023-04-20T09:55:22.419Z,26.77
2023-04-20T09:56:22.232Z,26.94
2023-04-20T09:57:22.215Z,26.71
2023-04-20T09:58:22.225Z,26.63
2023-04-20T09:59:22.222Z,26.75
2023-04-20T10:00:22.437Z,26.86
2023-04-20T10:01:22.341Z,27.17
2023-04-20T10:02:22.441Z,26.74
2023-04-20T10:03:22.458Z,26.32
2023-04-20T10:04:23.442Z,26.14
2023-04-20T10:05:22.524Z,26.35
2023-04-20T10:06:22.531Z,26.30
2023-04-20T10:07:22.641Z,26.28
2023-04-20T10:08:22.672Z,26.27
2023-04-20T10:09:22.731Z,26.65
2023-04-20T10:10:22.752Z,26.28
2023-04-20T10:11:22.804Z,26.27
2023-04-20T10:12:22.863Z,26.52
2023-04-20T10:13:22.889Z,26.16
2023-04-20T10:14:22.919Z,26.07
2023-04-20T10:15:22.950Z,26.24
2023-04-20T10:16:23.125Z,26.12
2023-04-20T10:17:23.099Z,25.63
2023-04-20T10:18:23.370Z,25.95
2023-04-20T10:19:23.027Z,26.38
2023-04-20T10:20:23.059Z,26.25
2023-04-20T10:21:23.042Z,26.08
2023-04-20T10:22:23.143Z,26.78
2023-04-20T10:23:23.903Z,26.59
2023-04-20T10:24:23.588Z,31.51
2023-04-20T10:25:23.246Z,31.67
2023-04-20T10:26:23.344Z,30.87
2023-04-20T10:27:23.356Z,29.57
2023-04-20T10:28:23.382Z,30.00
2023-04-20T10:29:23.484Z,29.07
2023-04-20T10:30:23.963Z,28.80
2023-04-20T10:31:23.602Z,30.09
2023-04-20T10:32:23.625Z,28.38
2023-04-20T10:33:24.165Z,27.62
2023-04-20T10:34:23.614Z,27.96
2023-04-20T10:35:23.632Z,27.09
2023-04-20T10:36:23.694Z,26.45
2023-04-20T10:37:23.670Z,26.27
2023-04-20T10:38:23.706Z,26.63
2023-04-20T10:39:24.064Z,26.45
2023-04-20T10:40:24.141Z,26.47
2023-04-20T10:41:23.828Z,28.27
2023-04-20T10:42:23.965Z,30.37
2023-04-20T10:43:23.954Z,28.55
2023-04-20T10:44:24.023Z,28.86
2023-04-20T10:45:24.480Z,28.70
2023-04-20T10:46:24.221Z,28.57
2023-04-20T10:47:24.153Z,28.47
2023-04-20T10:48:24.141Z,28.45
2023-04-20T10:49:24.152Z,28.42
2023-04-20T10:50:24.155Z,28.40
2023-04-20T10:51:24.137Z,28.40
2023-04-20T10:52:24.149Z,28.34
2023-04-20T10:53:24.129Z,28.33
2023-04-20T10:54:24.157Z,28.38
2023-04-20T10:55:24.498Z,28.35
2023-04-20T10:56:24.260Z,28.39
2023-04-20T10:57:24.167Z,28.39
2023-04-20T10:58:24.161Z,28.29
2023-04-20T10:59:24.164Z,28.32
2023-04-20T11:00:24.157Z,28.25
2023-04-20T11:01:24.150Z,28.39
2023-04-20T11:02:24.264Z,28.33
2023-04-20T11:03:24.246Z,28.29
2023-04-20T11:04:24.180Z,28.20
2023-04-20T11:05:24.292Z,28.19
2023-04-20T11:06:24.132Z,28.26
2023-04-20T11:07:24.118Z,28.43
2023-04-20T11:08:24.173Z,28.33
2023-04-20T11:09:24.206Z,28.36
2023-04-20T11:10:24.445Z,28.43
2023-04-20T11:11:24.105Z,28.31
2023-04-20T11:12:24.111Z,28.30
2023-04-20T11:13:24.062Z,28.46
2023-04-20T11:14:24.126Z,28.34
2023-04-20T11:15:24.094Z,28.25
2023-04-20T11:16:30.429Z,28.22
2023-04-20T11:17:25.131Z,28.25
2023-04-20T11:18:24.083Z,28.36
2023-04-20T11:19:24.034Z,28.27
2023-04-20T11:20:23.987Z,28.28
2023-04-20T11:21:24.484Z,28.25
2023-04-20T11:22:24.002Z,28.30
2023-04-20T11:23:23.999Z,28.29
2023-04-20T11:24:23.949Z,28.30
2023-04-20T11:25:23.971Z,28.26
2023-04-20T11:26:24.495Z,28.30
2023-04-20T11:27:23.973Z,28.29
2023-04-20T11:28:24.058Z,28.28
2023-04-20T11:29:23.943Z,28.26
2023-04-20T11:30:23.890Z,28.30
2023-04-20T11:31:24.160Z,28.30
2023-04-20T11:32:23.986Z,28.21
2023-04-20T11:33:23.987Z,28.20
2023-04-20T11:34:23.865Z,28.21
2023-04-20T11:35:23.820Z,28.27
2023-04-20T11:36:23.999Z,28.25
2023-04-20T11:37:23.809Z,28.27
2023-04-20T11:38:23.776Z,28.32
2023-04-20T11:39:23.783Z,28.29
2023-04-20T11:40:23.759Z,28.26
2023-04-20T11:41:23.733Z,28.31
2023-04-20T11:42:23.734Z,28.25
2023-04-20T11:43:23.718Z,28.26
2023-04-20T11:44:23.709Z,28.24
2023-04-20T11:45:23.698Z,28.26
2023-04-20T11:46:23.715Z,28.27
2023-04-20T11:47:23.763Z,28.27
2023-04-20T11:48:23.675Z,28.25
2023-04-20T11:49:23.634Z,28.28
2023-04-20T11:50:23.645Z,28.30
2023-04-20T11:51:23.995Z,28.29
2023-04-20T11:52:23.604Z,28.29
2023-04-20T11:53:23.598Z,28.33
2023-04-20T11:54:23.647Z,28.27
2023-04-20T11:55:23.625Z,28.34
2023-04-20T11:56:23.553Z,28.33
2023-04-20T11:57:23.546Z,28.39
2023-04-20T11:58:23.531Z,28.36
2023-04-20T11:59:23.525Z,28.31
2023-04-20T12:00:23.485Z,28.37
2023-04-20T12:01:23.522Z,28.36
2023-04-20T12:02:23.661Z,28.35
2023-04-20T12:03:23.601Z,28.34
2023-04-20T12:04:23.635Z,28.38
2023-04-20T12:05:23.475Z,28.35
2023-04-20T12:06:23.472Z,28.35
2023-04-20T12:07:23.408Z,28.35
2023-04-20T12:08:23.418Z,28.37
2023-04-20T12:09:23.435Z,28.38
2023-04-20T12:10:23.417Z,28.37
2023-04-20T12:11:23.423Z,28.42
2023-04-20T12:12:23.423Z,28.42
2023-04-20T12:13:23.388Z,28.37
2023-04-20T12:14:23.411Z,28.44
2023-04-20T12:15:23.447Z,28.39
2023-04-20T12:16:23.488Z,28.40
2023-04-20T12:17:23.426Z,28.41
2023-04-20T12:18:23.418Z,28.39
2023-04-20T12:19:23.406Z,28.39
2023-04-20T12:20:23.411Z,28.41
2023-04-20T12:21:23.417Z,28.42
2023-04-20T12:22:23.422Z,28.43
2023-04-20T12:23:23.377Z,28.42
2023-04-20T12:24:23.401Z,28.43
2023-04-20T12:25:23.394Z,28.42
2023-04-20T12:26:31.973Z,28.42
2023-04-20T12:27:24.436Z,28.44
2023-04-20T12:28:23.385Z,28.44
2023-04-20T12:29:23.359Z,28.41
2023-04-20T12:30:23.365Z,28.43
2023-04-20T12:31:26.264Z,28.43
2023-04-20T12:32:23.387Z,28.45
2023-04-20T12:33:23.320Z,28.46
2023-04-20T12:34:23.361Z,28.45
2023-04-20T12:35:23.261Z,28.46
2023-04-20T12:36:23.248Z,28.44
2023-04-20T12:37:23.231Z,28.47
2023-04-20T12:38:23.224Z,28.46
2023-04-20T12:39:23.227Z,28.47
2023-04-20T12:40:23.184Z,28.47
2023-04-20T12:41:23.161Z,28.48
2023-04-20T12:42:23.141Z,28.48
2023-04-20T12:43:23.141Z,28.49
2023-04-20T12:44:23.102Z,28.47
2023-04-20T12:45:23.083Z,28.47
2023-04-20T12:46:23.138Z,28.48
2023-04-20T12:47:23.120Z,28.47
2023-04-20T12:48:23.164Z,28.47
2023-04-20T12:49:23.088Z,28.46
2023-04-20T12:50:23.058Z,28.46
2023-04-20T12:51:23.063Z,28.45
2023-04-20T12:52:23.053Z,28.48